Time;durP1;ratioP1;P1;durP2;ratioP2;P2;SDS_P1;SDS_P2;PMS_P1;PMS_P2;Temp;Humidity;BMP_temperature;BMP_pressure;BME280_temperature;BME280_humidity;BME280_pressure;Samples;Min_cycle;Max_cycle;Signal;HPM_P1;HPM_P2
2023/03/06 00:02:02;;;;;;;9.93;5.70;;;;;;;;;;5051590;28;20207;-69
2023/03/06 00:04:29;;;;;;;8.57;6.25;;;;;;;;;;5055114;28;20233;-69
2023/03/06 00:06:56;;;;;;;9.45;6.85;;;;;;;;;;5052850;28;20210;-69
2023/03/06 00:09:23;;;;;;;14.10;7.80;;;;;;;;;;5055268;28;20198;-70
2023/03/06 00:11:50;;;;;;;13.30;7.68;;;;;;;;;;5052178;28;20206;-69
2023/03/06 00:14:17;;;;;;;11.00;7.18;;;;;;;;;;5054339;28;20214;-70
2023/03/06 00:16:46;;;;;;;10.40;7.10;;;;;;;;;;5052801;28;20221;-69
2023/03/06 00:19:13;;;;;;;8.82;6.65;;;;;;;;;;5054903;28;20404;-68
2023/03/06 00:21:40;;;;;;;10.88;6.72;;;;;;;;;;5052619;28;20570;-70
2023/03/06 00:24:07;;;;;;;13.70;7.45;;;;;;;;;;5052556;28;20231;-69
2023/03/06 00:26:35;;;;;;;11.63;7.30;;;;;;;;;;5043997;28;20638;-69
2023/03/06 00:29:02;;;;;;;9.35;6.88;;;;;;;;;;5034783;28;20731;-69
2023/03/06 00:31:29;;;;;;;9.27;6.55;;;;;;;;;;5033932;28;20210;-69
2023/03/06 00:33:58;;;;;;;10.55;5.95;;;;;;;;;;5034268;28;20297;-69
2023/03/06 00:36:25;;;;;;;7.10;5.80;;;;;;;;;;5034481;28;20225;-69
2023/03/06 00:38:52;;;;;;;8.60;6.22;;;;;;;;;;5034587;28;20199;-69
2023/03/06 00:41:19;;;;;;;9.10;6.07;;;;;;;;;;5039618;28;20198;-69
2023/03/06 00:43:46;;;;;;;8.32;5.90;;;;;;;;;;5054408;28;20245;-69
2023/03/06 00:46:13;;;;;;;9.75;6.72;;;;;;;;;;5054129;28;20672;-69
2023/03/06 00:48:40;;;;;;;7.28;5.53;;;;;;;;;;5054586;28;20561;-69
2023/03/06 00:51:09;;;;;;;9.18;7.20;;;;;;;;;;5054182;28;20202;-69
2023/03/06 00:53:36;;;;;;;8.60;5.90;;;;;;;;;;5047460;28;20215;-69
2023/03/06 00:56:03;;;;;;;8.40;5.90;;;;;;;;;;5034341;28;20344;-69
2023/03/06 00:58:30;;;;;;;7.85;5.90;;;;;;;;;;5039447;28;20205;-69
2023/03/06 01:00:57;;;;;;;9.73;6.20;;;;;;;;;;5054146;28;20202;-69
2023/03/06 01:03:24;;;;;;;9.82;6.43;;;;;;;;;;5053704;28;20203;-70
2023/03/06 01:05:51;;;;;;;10.50;7.10;;;;;;;;;;5052386;28;20652;-69
2023/03/06 01:08:20;;;;;;;9.50;6.53;;;;;;;;;;5053465;28;20220;-69
2023/03/06 01:10:47;;;;;;;8.90;6.30;;;;;;;;;;5044014;28;20202;-70
2023/03/06 01:13:14;;;;;;;10.60;7.10;;;;;;;;;;5033587;28;20582;-70
2023/03/06 01:15:41;;;;;;;9.05;6.32;;;;;;;;;;5032893;28;20199;-69
2023/03/06 01:18:09;;;;;;;11.80;6.80;;;;;;;;;;5034079;28;20728;-69
2023/03/06 01:20:36;;;;;;;12.80;7.53;;;;;;;;;;5041150;28;20202;-70
2023/03/06 01:23:03;;;;;;;10.85;7.05;;;;;;;;;;5039569;28;20255;-69
2023/03/06 01:25:32;;;;;;;14.30;7.55;;;;;;;;;;5047722;28;20222;-69
2023/03/06 01:27:59;;;;;;;14.18;8.02;;;;;;;;;;5052940;28;20195;-69
2023/03/06 01:30:26;;;;;;;12.45;7.75;;;;;;;;;;5051592;28;20198;-70
2023/03/06 01:32:53;;;;;;;13.98;8.27;;;;;;;;;;5052798;28;20213;-70
2023/03/06 01:35:20;;;;;;;13.45;8.80;;;;;;;;;;5052711;28;20234;-69
2023/03/06 01:37:47;;;;;;;12.20;8.07;;;;;;;;;;5033211;28;20223;-69
2023/03/06 01:40:14;;;;;;;11.98;7.78;;;;;;;;;;5033367;28;20204;-70
2023/03/06 01:42:43;;;;;;;16.00;9.52;;;;;;;;;;5032853;28;20200;-69
2023/03/06 01:45:25;;;;;;;14.75;9.55;;;;;;;;;;5032846;28;20219;-68
2023/03/06 01:47:52;;;;;;;14.85;9.32;;;;;;;;;;5031330;28;20204;-70
2023/03/06 01:50:19;;;;;;;16.08;10.77;;;;;;;;;;5033076;28;20202;-69
2023/03/06 01:52:49;;;;;;;18.90;10.63;;;;;;;;;;5031794;28;20199;-70
2023/03/06 01:55:18;;;;;;;16.10;9.63;;;;;;;;;;5032912;28;20227;-69
2023/03/06 01:57:48;;;;;;;17.58;10.50;;;;;;;;;;5035447;28;20293;-70
2023/03/06 02:00:16;;;;;;;15.43;10.13;;;;;;;;;;5050695;28;20199;-70
2023/03/06 02:02:45;;;;;;;18.27;10.70;;;;;;;;;;5048175;28;20209;-69
2023/03/06 02:05:12;;;;;;;19.30;11.48;;;;;;;;;;5052684;28;20226;-70
2023/03/06 02:07:40;;;;;;;20.15;12.70;;;;;;;;;;5035190;28;20199;-69
2023/03/06 02:10:08;;;;;;;23.67;12.40;;;;;;;;;;5032637;28;20200;-70
2023/03/06 02:12:36;;;;;;;20.30;12.55;;;;;;;;;;5031906;28;20204;-70
2023/03/06 02:15:05;;;;;;;20.67;12.55;;;;;;;;;;5032590;28;20762;-69
2023/03/06 02:17:34;;;;;;;24.77;14.30;;;;;;;;;;5033092;28;20215;-70
2023/03/06 02:20:08;;;;;;;19.63;12.77;;;;;;;;;;5051350;28;20199;-70
2023/03/06 02:22:38;;;;;;;20.27;11.65;;;;;;;;;;5052367;28;20206;-70
2023/03/06 02:25:08;;;;;;;25.08;13.55;;;;;;;;;;5051928;28;20241;-68
2023/03/06 02:27:37;;;;;;;21.13;13.63;;;;;;;;;;5052208;28;20190;-70
2023/03/06 02:30:06;;;;;;;21.88;13.13;;;;;;;;;;5039487;28;20210;-69
2023/03/06 02:32:33;;;;;;;20.60;13.75;;;;;;;;;;5047838;28;20203;-69
2023/03/06 02:35:00;;;;;;;20.42;12.52;;;;;;;;;;5044316;28;20231;-69
2023/03/06 02:37:29;;;;;;;20.83;12.50;;;;;;;;;;5032776;28;20611;-70
2023/03/06 02:39:59;;;;;;;23.35;14.00;;;;;;;;;;5032352;28;20200;-70
2023/03/06 02:42:28;;;;;;;17.75;11.75;;;;;;;;;;5032028;28;20199;-69
2023/03/06 02:44:57;;;;;;;21.67;13.35;;;;;;;;;;5047174;28;20218;-70
2023/03/06 02:47:25;;;;;;;23.23;12.68;;;;;;;;;;5052283;28;20198;-69
2023/03/06 02:49:52;;;;;;;20.48;13.32;;;;;;;;;;5039605;28;20578;-69
2023/03/06 02:52:19;;;;;;;20.23;13.90;;;;;;;;;;5046155;28;20202;-70
2023/03/06 02:54:46;;;;;;;23.08;14.00;;;;;;;;;;5048205;28;20229;-70
2023/03/06 02:57:13;;;;;;;23.55;15.43;;;;;;;;;;5031762;28;20223;-69
2023/03/06 02:59:40;;;;;;;19.92;12.95;;;;;;;;;;5031905;28;20678;-69
2023/03/06 03:02:09;;;;;;;27.98;15.18;;;;;;;;;;5031049;28;20204;-69
2023/03/06 03:04:36;;;;;;;20.05;13.57;;;;;;;;;;5031348;28;20227;-70
2023/03/06 03:07:03;;;;;;;22.33;13.82;;;;;;;;;;5043440;28;20199;-70
2023/03/06 03:09:35;;;;;;;23.52;13.30;;;;;;;;;;5051716;28;20574;-69
2023/03/06 03:12:02;;;;;;;22.63;14.55;;;;;;;;;;5050290;28;20480;-70
2023/03/06 03:14:29;;;;;;;21.42;13.93;;;;;;;;;;5041807;28;20579;-69
2023/03/06 03:16:56;;;;;;;21.63;13.90;;;;;;;;;;5031877;28;20257;-70
2023/03/06 03:19:25;;;;;;;24.48;13.30;;;;;;;;;;5031102;28;20215;-70
2023/03/06 03:21:52;;;;;;;27.25;14.52;;;;;;;;;;5033536;28;20198;-69
2023/03/06 03:24:19;;;;;;;24.80;15.02;;;;;;;;;;5051610;28;20245;-70
2023/03/06 03:26:46;;;;;;;23.42;14.20;;;;;;;;;;5051571;28;20198;-70
2023/03/06 03:29:13;;;;;;;22.52;13.30;;;;;;;;;;5030903;28;20318;-69
2023/03/06 03:31:40;;;;;;;28.10;15.82;;;;;;;;;;5033742;28;20206;-70
2023/03/06 03:34:08;;;;;;;22.30;14.25;;;;;;;;;;5035323;28;20231;-69
2023/03/06 03:36:36;;;;;;;23.52;13.75;;;;;;;;;;5038046;28;20615;-70
2023/03/06 03:39:03;;;;;;;24.83;15.48;;;;;;;;;;5047711;28;20199;-70
2023/03/06 03:41:31;;;;;;;21.70;14.05;;;;;;;;;;5035410;28;20199;-68
2023/03/06 03:43:58;;;;;;;25.95;14.75;;;;;;;;;;5035297;28;20219;-69
2023/03/06 03:46:25;;;;;;;26.00;14.98;;;;;;;;;;5035444;28;20203;-69
2023/03/06 03:48:52;;;;;;;28.52;15.55;;;;;;;;;;5033781;28;20203;-70
2023/03/06 03:51:19;;;;;;;24.15;13.88;;;;;;;;;;5051347;28;20198;-69
2023/03/06 03:53:48;;;;;;;24.70;15.50;;;;;;;;;;5050742;28;20219;-69
2023/03/06 03:56:15;;;;;;;24.45;14.48;;;;;;;;;;5034161;28;20222;-69
2023/03/06 03:58:42;;;;;;;26.83;16.48;;;;;;;;;;5035330;28;20248;-69
2023/03/06 04:01:09;;;;;;;26.45;15.43;;;;;;;;;;5034664;28;20203;-70
2023/03/06 04:03:36;;;;;;;23.90;14.70;;;;;;;;;;5036775;28;20234;-70
2023/03/06 04:06:04;;;;;;;29.83;15.60;;;;;;;;;;5054938;28;20203;-70
2023/03/06 04:08:31;;;;;;;26.33;16.10;;;;;;;;;;5052658;28;20190;-69
2023/03/06 04:10:59;;;;;;;26.33;15.27;;;;;;;;;;5038005;28;20203;-70
2023/03/06 04:13:26;;;;;;;25.95;15.77;;;;;;;;;;5034902;28;20195;-70
2023/03/06 04:15:54;;;;;;;25.63;15.38;;;;;;;;;;5034556;28;20211;-70
2023/03/06 04:18:22;;;;;;;24.40;13.98;;;;;;;;;;5034716;28;20226;-70
2023/03/06 04:20:49;;;;;;;23.15;14.68;;;;;;;;;;5035027;28;20210;-69
2023/03/06 04:23:17;;;;;;;26.30;15.15;;;;;;;;;;5033651;28;20195;-69
2023/03/06 04:25:44;;;;;;;29.50;14.60;;;;;;;;;;5033515;28;20207;-69
2023/03/06 04:28:13;;;;;;;25.27;15.23;;;;;;;;;;5034842;28;20195;-69
2023/03/06 04:30:40;;;;;;;28.70;15.30;;;;;;;;;;5034840;28;20206;-70
2023/03/06 04:33:07;;;;;;;27.80;16.83;;;;;;;;;;5051231;28;20194;-70
2023/03/06 04:35:34;;;;;;;25.40;15.05;;;;;;;;;;5054444;28;20237;-70
2023/03/06 04:38:01;;;;;;;31.10;15.50;;;;;;;;;;5052533;28;20219;-70
2023/03/06 04:40:29;;;;;;;29.42;15.57;;;;;;;;;;5054673;28;20202;-69
2023/03/06 04:42:56;;;;;;;26.77;15.27;;;;;;;;;;5040284;28;20210;-69
2023/03/06 04:45:25;;;;;;;22.30;13.60;;;;;;;;;;5049222;28;20583;-70
2023/03/06 04:47:52;;;;;;;28.27;16.95;;;;;;;;;;5054443;28;20195;-69
2023/03/06 04:50:20;;;;;;;29.80;17.25;;;;;;;;;;5053923;28;20202;-68
2023/03/06 04:52:47;;;;;;;29.17;16.20;;;;;;;;;;5054036;28;20199;-69
2023/03/06 04:55:16;;;;;;;26.52;14.50;;;;;;;;;;5054156;28;20734;-69
2023/03/06 04:57:44;;;;;;;28.67;17.45;;;;;;;;;;5051948;28;20226;-70
2023/03/06 05:00:13;;;;;;;30.65;15.43;;;;;;;;;;5054259;28;20199;-69
2023/03/06 05:02:43;;;;;;;33.05;16.00;;;;;;;;;;5053781;28;20205;-70
2023/03/06 05:05:11;;;;;;;29.13;16.75;;;;;;;;;;5051333;28;20234;-69
2023/03/06 05:07:38;;;;;;;30.05;16.38;;;;;;;;;;5054195;28;20191;-70
2023/03/06 05:10:06;;;;;;;32.10;16.25;;;;;;;;;;5039317;28;20207;-70
2023/03/06 05:12:36;;;;;;;28.60;17.02;;;;;;;;;;5033813;28;20203;-69
2023/03/06 05:15:03;;;;;;;33.13;17.58;;;;;;;;;;5033076;28;20292;-70
2023/03/06 05:17:30;;;;;;;29.80;16.95;;;;;;;;;;5032700;28;20216;-69
2023/03/06 05:19:59;;;;;;;27.42;15.48;;;;;;;;;;5053068;28;20214;-69
2023/03/06 05:22:26;;;;;;;30.20;15.25;;;;;;;;;;5046842;28;20203;-69
2023/03/06 05:24:53;;;;;;;33.63;18.27;;;;;;;;;;5033361;28;20231;-69
2023/03/06 05:27:20;;;;;;;28.05;15.32;;;;;;;;;;5033608;28;20195;-69
2023/03/06 05:29:47;;;;;;;27.88;15.93;;;;;;;;;;5047426;28;20209;-70
2023/03/06 05:32:16;;;;;;;27.58;16.42;;;;;;;;;;5032735;28;20207;-70
2023/03/06 05:34:43;;;;;;;31.42;17.05;;;;;;;;;;5055636;22;20226;-69
2023/03/06 05:37:11;;;;;;;29.77;16.92;;;;;;;;;;5052955;28;20213;-69
2023/03/06 05:39:38;;;;;;;30.42;16.67;;;;;;;;;;5053144;28;20549;-69
2023/03/06 05:42:05;;;;;;;30.35;15.65;;;;;;;;;;5052906;28;20677;-69
2023/03/06 05:44:32;;;;;;;33.45;17.20;;;;;;;;;;5050827;28;20215;-69
2023/03/06 05:46:59;;;;;;;33.05;16.77;;;;;;;;;;5047256;28;20362;-69
2023/03/06 05:49:26;;;;;;;31.95;16.52;;;;;;;;;;5044599;28;20198;-70
2023/03/06 05:51:54;;;;;;;29.25;17.15;;;;;;;;;;5033345;28;20203;-70
2023/03/06 05:54:23;;;;;;;27.35;15.82;;;;;;;;;;5031896;28;20225;-70
2023/03/06 05:56:50;;;;;;;32.55;16.20;;;;;;;;;;5033095;28;20218;-69
2023/03/06 05:59:18;;;;;;;29.33;16.88;;;;;;;;;;5033301;28;20227;-70
2023/03/06 06:01:45;;;;;;;36.20;19.98;;;;;;;;;;5037818;28;20203;-70
2023/03/06 06:04:12;;;;;;;30.75;16.95;;;;;;;;;;5044553;28;20219;-69
2023/03/06 06:06:39;;;;;;;32.13;16.55;;;;;;;;;;5052302;28;20660;-70
2023/03/06 06:09:06;;;;;;;27.85;15.77;;;;;;;;;;5049652;28;20555;-69
2023/03/06 06:11:34;;;;;;;26.00;15.43;;;;;;;;;;5052156;28;20198;-70
2023/03/06 06:14:01;;;;;;;35.60;17.20;;;;;;;;;;5052533;28;20218;-69
2023/03/06 06:16:29;;;;;;;25.85;15.63;;;;;;;;;;5052230;28;20205;-69
2023/03/06 06:18:57;;;;;;;29.80;16.77;;;;;;;;;;5040020;28;20192;-69
2023/03/06 06:21:24;;;;;;;36.83;18.20;;;;;;;;;;5032451;28;20687;-69
2023/03/06 06:23:52;;;;;;;27.35;15.20;;;;;;;;;;5032288;28;20203;-69
2023/03/06 06:26:19;;;;;;;31.88;18.25;;;;;;;;;;5032322;28;20657;-69
2023/03/06 06:28:47;;;;;;;35.53;17.98;;;;;;;;;;5032672;28;20225;-69
2023/03/06 06:31:14;;;;;;;30.98;18.27;;;;;;;;;;5032523;28;20196;-69
2023/03/06 06:33:42;;;;;;;33.92;18.23;;;;;;;;;;5031413;28;20199;-69
2023/03/06 06:36:15;;;;;;;35.63;17.98;;;;;;;;;;5032284;28;20211;-69
2023/03/06 06:38:42;;;;;;;35.72;17.30;;;;;;;;;;5032513;28;20200;-69
2023/03/06 06:41:09;;;;;;;38.67;18.90;;;;;;;;;;5034536;28;20502;-69
2023/03/06 06:43:36;;;;;;;30.58;17.13;;;;;;;;;;5048503;28;20653;-70
2023/03/06 06:46:05;;;;;;;32.25;19.20;;;;;;;;;;5047818;28;20198;-70
2023/03/06 06:48:32;;;;;;;33.00;18.10;;;;;;;;;;5042444;28;20218;-69
2023/03/06 06:51:00;;;;;;;31.23;17.42;;;;;;;;;;5046662;28;20202;-69
2023/03/06 06:53:27;;;;;;;32.38;16.77;;;;;;;;;;5050815;28;20206;-69
2023/03/06 06:55:54;;;;;;;32.88;16.90;;;;;;;;;;5050761;28;20226;-69
2023/03/06 06:58:21;;;;;;;30.67;17.08;;;;;;;;;;5051357;28;20574;-69
2023/03/06 07:00:48;;;;;;;38.35;18.58;;;;;;;;;;5051556;28;20194;-68
2023/03/06 07:03:17;;;;;;;32.33;17.10;;;;;;;;;;5051368;28;20198;-68
2023/03/06 07:05:44;;;;;;;32.30;18.10;;;;;;;;;;5044963;28;20688;-68
2023/03/06 07:08:11;;;;;;;34.55;19.13;;;;;;;;;;5051021;28;20315;-68
2023/03/06 07:10:39;;;;;;;27.98;17.02;;;;;;;;;;5051240;28;20230;-68
2023/03/06 07:13:06;;;;;;;34.90;18.50;;;;;;;;;;5050550;28;20244;-68
2023/03/06 07:15:33;;;;;;;30.33;16.58;;;;;;;;;;5050792;28;20238;-68
2023/03/06 07:18:00;;;;;;;32.90;18.58;;;;;;;;;;5033553;28;20191;-68
2023/03/06 07:20:30;;;;;;;30.67;16.73;;;;;;;;;;5043682;28;20202;-68
2023/03/06 07:22:57;;;;;;;31.63;16.60;;;;;;;;;;5049758;28;20240;-68
2023/03/06 07:25:24;;;;;;;29.80;15.75;;;;;;;;;;5047061;28;20214;-68
2023/03/06 07:27:53;;;;;;;34.28;17.42;;;;;;;;;;5048053;28;20214;-68
2023/03/06 07:30:20;;;;;;;29.58;16.77;;;;;;;;;;5041892;28;20285;-68
2023/03/06 07:32:47;;;;;;;32.10;15.95;;;;;;;;;;5041593;28;20198;-68
2023/03/06 07:35:15;;;;;;;30.98;15.75;;;;;;;;;;5041709;28;20233;-69
2023/03/06 07:37:44;;;;;;;35.10;19.15;;;;;;;;;;5043916;28;20207;-69
2023/03/06 07:40:12;;;;;;;34.72;17.67;;;;;;;;;;5043013;28;20203;-71
2023/03/06 07:42:39;;;;;;;32.08;18.95;;;;;;;;;;5039914;28;20207;-67
2023/03/06 07:45:07;;;;;;;30.13;18.33;;;;;;;;;;5039671;28;20225;-68
2023/03/06 07:47:34;;;;;;;27.90;16.05;;;;;;;;;;5032293;28;20199;-68
2023/03/06 07:50:04;;;;;;;33.50;18.02;;;;;;;;;;5047525;28;20214;-68
2023/03/06 07:52:31;;;;;;;29.10;16.92;;;;;;;;;;5047631;28;20606;-68
2023/03/06 07:54:59;;;;;;;35.25;18.48;;;;;;;;;;5046651;28;20222;-68
2023/03/06 07:57:26;;;;;;;30.38;16.95;;;;;;;;;;5038305;28;20201;-68
2023/03/06 07:59:54;;;;;;;26.00;14.98;;;;;;;;;;5038915;28;20194;-68
2023/03/06 08:02:21;;;;;;;30.98;15.80;;;;;;;;;;5042883;28;20218;-68
2023/03/06 08:04:52;;;;;;;33.83;16.27;;;;;;;;;;5046994;28;20218;-68
2023/03/06 08:07:19;;;;;;;32.67;16.90;;;;;;;;;;5051098;28;20199;-68
2023/03/06 08:09:46;;;;;;;30.75;16.80;;;;;;;;;;5045047;28;20709;-68
2023/03/06 08:12:14;;;;;;;28.42;16.00;;;;;;;;;;5049186;28;20209;-68
2023/03/06 08:14:41;;;;;;;32.08;16.38;;;;;;;;;;5048891;28;20218;-68
2023/03/06 08:17:08;;;;;;;31.88;18.77;;;;;;;;;;5050511;28;20207;-68
2023/03/06 08:19:35;;;;;;;39.22;17.95;;;;;;;;;;5050756;28;20668;-69
2023/03/06 08:22:04;;;;;;;32.35;18.88;;;;;;;;;;5049014;28;20196;-69
2023/03/06 08:24:31;;;;;;;33.45;18.25;;;;;;;;;;5048582;28;20226;-68
2023/03/06 08:26:58;;;;;;;34.25;17.85;;;;;;;;;;5053654;28;20194;-69
2023/03/06 08:29:26;;;;;;;35.63;18.35;;;;;;;;;;5043973;28;20223;-71
2023/03/06 08:31:54;;;;;;;32.35;17.38;;;;;;;;;;5044647;28;20202;-69
2023/03/06 08:34:23;;;;;;;30.75;18.70;;;;;;;;;;5052388;28;20617;-70
2023/03/06 08:36:50;;;;;;;37.15;19.13;;;;;;;;;;5060437;28;20194;-71
2023/03/06 08:39:17;;;;;;;34.83;17.80;;;;;;;;;;5063192;28;20203;-69
2023/03/06 08:41:44;;;;;;;36.60;17.75;;;;;;;;;;5046545;28;20207;-70
2023/03/06 08:44:12;;;;;;;32.05;17.13;;;;;;;;;;5060932;28;20209;-70
2023/03/06 08:46:40;;;;;;;29.85;16.10;;;;;;;;;;5060975;28;20209;-70
2023/03/06 08:49:07;;;;;;;26.90;16.20;;;;;;;;;;5051003;28;20222;-70
2023/03/06 08:51:34;;;;;;;21.88;13.32;;;;;;;;;;5053834;28;20214;-70
2023/03/06 08:54:01;;;;;;;26.63;15.20;;;;;;;;;;5051374;28;20229;-71
2023/03/06 08:56:29;;;;;;;26.08;13.80;;;;;;;;;;5051148;28;20206;-70
2023/03/06 08:58:57;;;;;;;26.15;16.38;;;;;;;;;;5038119;28;20687;-70
2023/03/06 09:01:25;;;;;;;22.58;13.48;;;;;;;;;;5050586;28;20222;-70
2023/03/06 09:03:55;;;;;;;22.17;13.40;;;;;;;;;;5053629;28;20206;-70
2023/03/06 09:06:23;;;;;;;18.30;11.07;;;;;;;;;;5053179;28;20264;-70
2023/03/06 09:08:51;;;;;;;18.77;12.25;;;;;;;;;;5053862;28;20214;-72
2023/03/06 09:11:18;;;;;;;18.88;10.80;;;;;;;;;;5058573;28;20202;-69
2023/03/06 09:13:45;;;;;;;31.92;15.45;;;;;;;;;;5053265;28;20572;-71
2023/03/06 09:16:13;;;;;;;19.27;11.52;;;;;;;;;;5055962;28;20675;-70
2023/03/06 09:18:40;;;;;;;19.65;11.75;;;;;;;;;;5057094;28;20283;-71
2023/03/06 09:21:09;;;;;;;21.52;12.60;;;;;;;;;;5036930;28;20203;-71
2023/03/06 09:23:38;;;;;;;16.08;10.43;;;;;;;;;;5053246;28;20203;-71
2023/03/06 09:26:05;;;;;;;21.40;11.43;;;;;;;;;;5051927;28;20230;-72
2023/03/06 09:28:33;;;;;;;32.13;14.55;;;;;;;;;;5049243;28;20219;-72
2023/03/06 09:31:00;;;;;;;29.08;13.80;;;;;;;;;;5050252;28;20203;-74
2023/03/06 09:33:30;;;;;;;29.45;14.40;;;;;;;;;;5047357;28;20206;-75
2023/03/06 09:35:57;;;;;;;32.85;17.25;;;;;;;;;;5048287;28;20252;-75
2023/03/06 09:38:26;;;;;;;30.73;16.27;;;;;;;;;;5049134;28;20195;-74
2023/03/06 09:40:59;;;;;;;36.03;16.42;;;;;;;;;;5050138;28;20664;-70
2023/03/06 09:43:29;;;;;;;33.25;14.43;;;;;;;;;;5048671;28;20250;-70
2023/03/06 09:45:57;;;;;;;28.83;13.70;;;;;;;;;;5044947;28;20233;-69
2023/03/06 09:48:28;;;;;;;25.67;13.77;;;;;;;;;;5048703;28;20199;-70
2023/03/06 09:50:59;;;;;;;30.55;16.65;;;;;;;;;;5051139;28;20222;-72
2023/03/06 09:53:39;;;;;;;33.47;15.55;;;;;;;;;;5036537;28;20225;-71
2023/03/06 09:56:10;;;;;;;24.08;13.63;;;;;;;;;;5048825;28;20206;-71
2023/03/06 09:58:42;;;;;;;26.25;13.57;;;;;;;;;;5053028;28;20220;-71
2023/03/06 10:01:15;;;;;;;23.25;13.57;;;;;;;;;;5050705;28;20199;-71
2023/03/06 10:03:47;;;;;;;27.00;14.63;;;;;;;;;;5045060;28;20251;-72
2023/03/06 10:06:16;;;;;;;27.13;14.80;;;;;;;;;;5063750;28;20195;-71
2023/03/06 10:08:49;;;;;;;23.02;14.40;;;;;;;;;;5051956;28;20210;-70
2023/03/06 10:11:19;;;;;;;24.05;14.02;;;;;;;;;;5052068;28;20548;-69
2023/03/06 10:13:47;;;;;;;22.50;13.63;;;;;;;;;;5052342;28;20202;-70
2023/03/06 10:16:20;;;;;;;23.45;13.20;;;;;;;;;;5047398;28;20592;-71
2023/03/06 10:18:47;;;;;;;23.40;14.27;;;;;;;;;;5050713;28;20194;-70
2023/03/06 10:21:21;;;;;;;23.80;14.10;;;;;;;;;;5052005;28;20195;-70
2023/03/06 10:23:52;;;;;;;25.70;12.25;;;;;;;;;;5052700;28;20207;-71
2023/03/06 10:26:20;;;;;;;25.13;14.50;;;;;;;;;;5051845;28;20199;-69
2023/03/06 10:28:50;;;;;;;22.67;13.38;;;;;;;;;;5052058;28;20194;-69
2023/03/06 10:31:19;;;;;;;24.85;14.90;;;;;;;;;;5051804;28;20226;-70
2023/03/06 10:33:53;;;;;;;30.33;14.15;;;;;;;;;;5046826;28;20684;-70
2023/03/06 10:36:21;;;;;;;18.92;12.35;;;;;;;;;;5032015;28;20207;-70
2023/03/06 10:38:49;;;;;;;22.73;12.90;;;;;;;;;;5048537;28;20295;-70
2023/03/06 10:41:25;;;;;;;20.67;12.55;;;;;;;;;;5043167;28;20687;-70
2023/03/06 10:44:10;;;;;;;21.38;12.52;;;;;;;;;;5043455;28;20195;-71
2023/03/06 10:46:39;;;;;;;19.40;10.10;;;;;;;;;;5048508;28;20209;-71
2023/03/06 10:49:08;;;;;;;22.50;12.88;;;;;;;;;;5049629;28;20242;-71
2023/03/06 10:51:35;;;;;;;20.00;11.88;;;;;;;;;;5048686;28;20202;-71
2023/03/06 10:54:06;;;;;;;23.15;12.13;;;;;;;;;;5051518;28;20230;-69
2023/03/06 10:56:36;;;;;;;17.27;9.75;;;;;;;;;;5048884;28;20664;-69
2023/03/06 10:59:07;;;;;;;16.75;9.85;;;;;;;;;;5045958;28;20191;-69
2023/03/06 11:01:35;;;;;;;14.77;9.45;;;;;;;;;;5049397;28;20199;-68
2023/03/06 11:04:15;;;;;;;13.40;9.35;;;;;;;;;;5047507;28;20225;-70
2023/03/06 11:06:43;;;;;;;14.52;8.50;;;;;;;;;;5044168;28;20225;-70
2023/03/06 11:09:16;;;;;;;18.85;10.38;;;;;;;;;;5049437;28;20287;-68
2023/03/06 11:11:45;;;;;;;17.75;10.40;;;;;;;;;;5048677;28;20195;-69
2023/03/06 11:14:16;;;;;;;22.77;11.77;;;;;;;;;;5049920;28;20222;-70
2023/03/06 11:16:51;;;;;;;16.23;10.60;;;;;;;;;;5046528;28;20653;-72
2023/03/06 11:19:19;;;;;;;17.83;10.27;;;;;;;;;;5049413;28;20197;-72
2023/03/06 11:21:59;;;;;;;19.80;11.48;;;;;;;;;;5049294;28;20205;-73
2023/03/06 11:24:37;;;;;;;20.98;11.55;;;;;;;;;;5042467;28;20235;-72
2023/03/06 11:27:09;;;;;;;19.85;11.13;;;;;;;;;;5040761;28;20203;-70
2023/03/06 11:29:39;;;;;;;22.15;13.07;;;;;;;;;;5047848;28;20233;-70
2023/03/06 11:32:10;;;;;;;24.67;13.50;;;;;;;;;;5050645;28;20308;-70
2023/03/06 11:34:40;;;;;;;22.77;13.18;;;;;;;;;;5063989;22;20229;-70
2023/03/06 11:37:09;;;;;;;24.67;12.90;;;;;;;;;;5049557;28;20198;-70
2023/03/06 11:39:39;;;;;;;18.60;11.90;;;;;;;;;;5043297;28;20206;-70
2023/03/06 11:42:13;;;;;;;22.05;13.25;;;;;;;;;;5049182;28;20202;-71
2023/03/06 11:44:47;;;;;;;19.15;12.45;;;;;;;;;;5047949;28;20226;-71
2023/03/06 11:47:16;;;;;;;19.77;12.40;;;;;;;;;;5050114;28;20210;-71
2023/03/06 11:49:45;;;;;;;19.63;10.93;;;;;;;;;;5047814;28;20711;-71
2023/03/06 11:52:15;;;;;;;19.35;11.00;;;;;;;;;;5052409;28;20190;-71
2023/03/06 11:54:42;;;;;;;14.75;10.55;;;;;;;;;;5052213;28;20628;-70
2023/03/06 11:57:16;;;;;;;17.25;9.90;;;;;;;;;;5046703;28;20569;-70
2023/03/06 11:59:51;;;;;;;20.40;10.63;;;;;;;;;;5054080;28;20203;-70
2023/03/06 12:02:22;;;;;;;21.33;9.60;;;;;;;;;;5049859;28;20203;-70
2023/03/06 12:04:53;;;;;;;19.95;11.32;;;;;;;;;;5040352;28;20225;-71
2023/03/06 12:07:22;;;;;;;17.30;10.55;;;;;;;;;;5054142;28;20194;-71
2023/03/06 12:09:53;;;;;;;17.65;10.68;;;;;;;;;;5036108;28;20719;-70
2023/03/06 12:12:33;;;;;;;14.57;9.35;;;;;;;;;;5045618;28;20195;-71
2023/03/06 12:15:07;;;;;;;16.33;9.80;;;;;;;;;;5044963;28;20222;-72
2023/03/06 12:17:40;;;;;;;16.15;9.10;;;;;;;;;;5052829;28;20609;-73
2023/03/06 12:20:16;;;;;;;14.60;8.30;;;;;;;;;;5047430;28;20649;-70
2023/03/06 12:22:50;;;;;;;16.52;11.13;;;;;;;;;;5054771;28;20285;-72
2023/03/06 12:25:32;;;;;;;17.15;9.73;;;;;;;;;;5052232;28;20767;-69
2023/03/06 12:28:09;;;;;;;17.77;10.32;;;;;;;;;;5050368;28;20209;-72
2023/03/06 12:30:50;;;;;;;16.27;9.20;;;;;;;;;;5052494;28;20218;-71
2023/03/06 12:33:22;;;;;;;18.17;10.32;;;;;;;;;;5053242;28;20624;-72
2023/03/06 12:35:57;;;;;;;17.13;9.20;;;;;;;;;;5054437;28;20719;-72
2023/03/06 12:38:30;;;;;;;14.63;9.75;;;;;;;;;;5052002;28;20202;-72
2023/03/06 12:41:02;;;;;;;16.85;8.25;;;;;;;;;;5050180;28;20205;-72
2023/03/06 12:43:40;;;;;;;18.17;9.13;;;;;;;;;;5046490;28;20585;-71
2023/03/06 12:46:11;;;;;;;16.75;9.50;;;;;;;;;;5053352;28;20218;-71
2023/03/06 12:48:39;;;;;;;18.20;9.57;;;;;;;;;;5054362;28;20221;-69
2023/03/06 12:51:07;;;;;;;14.60;9.45;;;;;;;;;;5051593;28;20691;-70
2023/03/06 12:53:35;;;;;;;14.60;8.20;;;;;;;;;;5054170;28;20202;-73
2023/03/06 12:56:03;;;;;;;19.88;9.80;;;;;;;;;;5052113;28;20301;-72
2023/03/06 12:59:01;;;;;;;17.77;8.82;;;;;;;;;;5048318;28;20199;-72
2023/03/06 13:01:38;;;;;;;14.85;7.85;;;;;;;;;;4966736;28;20630;-73
2023/03/06 13:04:20;;;;;;;14.77;8.48;;;;;;;;;;5036934;28;20251;-72
2023/03/06 13:06:56;;;;;;;15.20;8.20;;;;;;;;;;5053746;28;20203;-72
2023/03/06 13:09:29;;;;;;;13.50;9.10;;;;;;;;;;5050728;28;20444;-72
2023/03/06 13:12:06;;;;;;;15.50;9.23;;;;;;;;;;5051289;28;20199;-71
2023/03/06 13:14:52;;;;;;;12.32;8.00;;;;;;;;;;5046780;28;20726;-71
2023/03/06 13:17:27;;;;;;;17.95;8.80;;;;;;;;;;5051680;28;20225;-70
2023/03/06 13:20:10;;;;;;;11.65;7.60;;;;;;;;;;5051528;28;20567;-71
2023/03/06 13:22:37;;;;;;;16.10;7.10;;;;;;;;;;5038933;28;20206;-71
2023/03/06 13:25:22;;;;;;;10.77;6.60;;;;;;;;;;5053186;28;20234;-71
2023/03/06 13:28:02;;;;;;;10.75;6.93;;;;;;;;;;5050476;28;20213;-70
2023/03/06 13:30:42;;;;;;;11.25;7.25;;;;;;;;;;5052588;28;20287;-70
2023/03/06 13:33:31;;;;;;;19.63;9.50;;;;;;;;;;5052605;28;20194;-70
2023/03/06 13:36:00;;;;;;;12.60;7.78;;;;;;;;;;5044614;28;20222;-71
2023/03/06 13:38:35;;;;;;;12.35;7.85;;;;;;;;;;5052739;28;20191;-70
2023/03/06 13:41:20;;;;;;;14.45;7.00;;;;;;;;;;5052623;28;20217;-71
2023/03/06 13:43:48;;;;;;;10.25;7.20;;;;;;;;;;5052788;28;20679;-72
2023/03/06 13:46:23;;;;;;;13.38;7.82;;;;;;;;;;5050977;28;20218;-71
2023/03/06 13:49:03;;;;;;;12.38;6.70;;;;;;;;;;5050773;28;20208;-72
2023/03/06 13:51:34;;;;;;;16.88;8.43;;;;;;;;;;5032798;28;20223;-71
2023/03/06 13:54:12;;;;;;;18.80;9.25;;;;;;;;;;5037143;28;20218;-71
2023/03/06 13:57:03;;;;;;;15.23;8.35;;;;;;;;;;5053275;28;20277;-72
2023/03/06 13:59:51;;;;;;;20.33;8.48;;;;;;;;;;5036895;28;20199;-71
2023/03/06 14:02:31;;;;;;;17.92;9.00;;;;;;;;;;5030042;28;20454;-71
2023/03/06 14:04:59;;;;;;;14.20;8.13;;;;;;;;;;5043862;28;20219;-72
2023/03/06 14:07:29;;;;;;;12.80;7.93;;;;;;;;;;5046704;28;20195;-72
2023/03/06 14:10:01;;;;;;;13.35;7.72;;;;;;;;;;5050341;28;20215;-71
2023/03/06 14:12:32;;;;;;;13.48;8.77;;;;;;;;;;5043430;28;20244;-68
2023/03/06 14:15:00;;;;;;;15.80;9.07;;;;;;;;;;5044011;28;20217;-69
2023/03/06 14:17:28;;;;;;;13.38;7.68;;;;;;;;;;5051089;28;20206;-70
2023/03/06 14:19:57;;;;;;;14.05;8.43;;;;;;;;;;5050281;28;20222;-69
2023/03/06 14:22:24;;;;;;;18.05;8.45;;;;;;;;;;5046687;28;20230;-69
2023/03/06 14:24:56;;;;;;;15.27;9.48;;;;;;;;;;5051325;28;20599;-70
2023/03/06 14:27:37;;;;;;;16.63;9.85;;;;;;;;;;5040956;28;20221;-70
2023/03/06 14:30:05;;;;;;;19.45;9.52;;;;;;;;;;5051387;28;20214;-70
2023/03/06 14:32:33;;;;;;;12.30;8.90;;;;;;;;;;5041326;28;20195;-70
2023/03/06 14:35:00;;;;;;;15.38;9.50;;;;;;;;;;5044579;28;20339;-66